KLM686 MMMX-EHAM
Flight info
| Callsign | KLM686 |
|---|---|
| Flight time | N/A |
| Altitude | 35000 |
| Route | IKLAN2A IKLAN UT140 TAM UM575 CLONN M575 TBD DCT CATLN DCT MGM DCT LGC DCT SPA DCT RBV/N0478F370 Q22 FOXWD DCT MIILS N575A TUDEP/M082F390 DCT 52N050W 54N040W 55N030W 55N020W DCT DOGAL DCT BEXET/N0471F390 DCT BOFUM Q37 MALUD UL975 WAL M16 DOLAS L603 LAMSO |
| Aircraft | B772/H-SDE1E2E3FGHIJ1J3J4J5KLM1OP1P3RUVWXY/LB1D1 |
Departure
| Time | 2026-05-08 02:22 |
|---|---|
| Airport | Mexico City Benito Juárez International Airport (MMMX) |
Arrival
| Time | N/A |
|---|---|
| Airport | Amsterdam Airport Schiphol (EHAM) |
| Time | Latitude | Longitude | Altitude | Speed | Heading |
|---|---|---|---|---|---|
| 2026-05-08 01:17 | 19.43550 | -99.08052 | 7359 ft | 0 kts | 329° |
| 2026-05-08 02:05 | 19.43541 | -99.08046 | 7359 ft | 1 kts | 329° |
| 2026-05-08 02:06 | 19.43532 | -99.08041 | 7359 ft | 0 kts | 329° |
| 2026-05-08 02:06 | 19.43523 | -99.08034 | 7359 ft | 2 kts | 321° |
| 2026-05-08 02:06 | 19.43514 | -99.08025 | 7359 ft | 1 kts | 306° |
| 2026-05-08 02:06 | 19.43506 | -99.08012 | 7359 ft | 2 kts | 294° |
| 2026-05-08 02:07 | 19.43502 | -99.07999 | 7358 ft | 2 kts | 282° |
| 2026-05-08 02:07 | 19.43500 | -99.07983 | 7358 ft | 2 kts | 269° |
| 2026-05-08 02:07 | 19.43501 | -99.07970 | 7358 ft | 2 kts | 257° |
| 2026-05-08 02:07 | 19.43505 | -99.07955 | 7358 ft | 2 kts | 244° |
| 2026-05-08 02:08 | 19.43509 | -99.07948 | 7358 ft | 0 kts | 238° |
| 2026-05-08 02:11 | 19.43508 | -99.07950 | 7358 ft | 1 kts | 238° |
| 2026-05-08 02:11 | 19.43491 | -99.07981 | 7358 ft | 9 kts | 240° |
| 2026-05-08 02:11 | 19.43450 | -99.08055 | 7359 ft | 17 kts | 239° |
| 2026-05-08 02:12 | 19.43399 | -99.08138 | 7360 ft | 14 kts | 243° |
| 2026-05-08 02:12 | 19.43345 | -99.08240 | 7361 ft | 22 kts | 239° |
| 2026-05-08 02:12 | 19.43271 | -99.08376 | 7361 ft | 27 kts | 242° |
| 2026-05-08 02:12 | 19.43189 | -99.08524 | 7360 ft | 26 kts | 238° |
| 2026-05-08 02:13 | 19.43108 | -99.08669 | 7359 ft | 25 kts | 239° |
| 2026-05-08 02:13 | 19.43023 | -99.08817 | 7357 ft | 25 kts | 239° |
| 2026-05-08 02:13 | 19.42941 | -99.08961 | 7354 ft | 14 kts | 238° |
| 2026-05-08 02:13 | 19.42896 | -99.09019 | 7353 ft | 10 kts | 221° |
| 2026-05-08 02:14 | 19.42877 | -99.09034 | 7353 ft | 0 kts | 214° |
| 2026-05-08 02:14 | 19.42877 | -99.09035 | 7353 ft | 0 kts | 214° |
| 2026-05-08 02:14 | 19.42874 | -99.09037 | 7353 ft | 3 kts | 214° |
| 2026-05-08 02:14 | 19.42820 | -99.09070 | 7352 ft | 14 kts | 210° |
| 2026-05-08 02:15 | 19.42723 | -99.09073 | 7351 ft | 14 kts | 141° |
| 2026-05-08 02:15 | 19.42695 | -99.08954 | 7352 ft | 20 kts | 94° |
| 2026-05-08 02:15 | 19.42687 | -99.08839 | 7354 ft | 6 kts | 94° |
| 2026-05-08 02:15 | 19.42687 | -99.08829 | 7354 ft | 0 kts | 94° |
| 2026-05-08 02:19 | 19.42687 | -99.08828 | 7354 ft | 1 kts | 94° |
| 2026-05-08 02:19 | 19.42684 | -99.08791 | 7354 ft | 10 kts | 94° |
| 2026-05-08 02:20 | 19.42676 | -99.08686 | 7354 ft | 18 kts | 94° |
| 2026-05-08 02:20 | 19.42703 | -99.08583 | 7355 ft | 0 kts | 59° |
| 2026-05-08 02:21 | 19.42787 | -99.08430 | 7357 ft | 52 kts | 59° |
| 2026-05-08 02:21 | 19.43032 | -99.08010 | 7358 ft | 95 kts | 64° |
| 2026-05-08 02:22 | 19.43431 | -99.07285 | 7351 ft | 144 kts | 60° |
| 2026-05-08 02:22 | 19.43991 | -99.06286 | 7344 ft | 187 kts | 59° |
| 2026-05-08 02:22 | 19.44651 | -99.05095 | 7642 ft | 200 kts | 59° |
| 2026-05-08 02:22 | 19.45303 | -99.03919 | 8290 ft | 195 kts | 59° |
| 2026-05-08 02:23 | 19.46125 | -99.02660 | 8595 ft | 217 kts | 53° |
| 2026-05-08 02:23 | 19.47009 | -99.01326 | 9063 ft | 230 kts | 57° |
| 2026-05-08 02:23 | 19.47895 | -98.99928 | 9665 ft | 238 kts | 57° |
| 2026-05-08 02:23 | 19.48834 | -98.98368 | 9988 ft | 264 kts | 58° |
| 2026-05-08 02:24 | 19.49807 | -98.96712 | 10616 ft | 275 kts | 57° |
| 2026-05-08 02:24 | 19.50783 | -98.95006 | 11367 ft | 281 kts | 61° |
| 2026-05-08 02:24 | 19.51729 | -98.93193 | 11808 ft | 300 kts | 61° |
| 2026-05-08 02:24 | 19.52690 | -98.91455 | 12333 ft | 305 kts | 60° |
| 2026-05-08 02:25 | 19.53936 | -98.89532 | 12647 ft | 317 kts | 50° |
| 2026-05-08 02:25 | 19.55404 | -98.87839 | 12975 ft | 326 kts | 47° |
| 2026-05-08 02:25 | 19.56967 | -98.86104 | 13489 ft | 328 kts | 46° |
| 2026-05-08 02:25 | 19.58524 | -98.84389 | 13985 ft | 331 kts | 46° |
| 2026-05-08 02:26 | 19.60148 | -98.82674 | 14446 ft | 336 kts | 43° |
| 2026-05-08 02:26 | 19.62025 | -98.81162 | 14875 ft | 342 kts | 27° |
| 2026-05-08 02:26 | 19.64303 | -98.80451 | 15322 ft | 346 kts | 3° |
| 2026-05-08 02:26 | 19.66728 | -98.80553 | 15860 ft | 346 kts | 353° |
| 2026-05-08 02:27 | 19.69109 | -98.80826 | 16402 ft | 347 kts | 352° |
| 2026-05-08 02:27 | 19.71528 | -98.81139 | 16886 ft | 349 kts | 352° |
| 2026-05-08 02:27 | 19.73934 | -98.81441 | 17304 ft | 353 kts | 351° |
| 2026-05-08 02:27 | 19.76419 | -98.81778 | 17701 ft | 358 kts | 351° |
| 2026-05-08 02:28 | 19.78913 | -98.82104 | 18130 ft | 363 kts | 352° |
| 2026-05-08 02:28 | 19.81460 | -98.82389 | 18566 ft | 366 kts | 353° |
| 2026-05-08 02:28 | 19.84026 | -98.82662 | 19014 ft | 369 kts | 353° |
| 2026-05-08 02:28 | 19.86608 | -98.82941 | 19458 ft | 372 kts | 353° |
| 2026-05-08 02:29 | 19.89205 | -98.83215 | 19734 ft | 381 kts | 353° |
| 2026-05-08 02:29 | 19.91891 | -98.83504 | 19835 ft | 395 kts | 353° |
| 2026-05-08 02:29 | 19.94694 | -98.83807 | 19920 ft | 409 kts | 353° |
| 2026-05-08 02:29 | 19.97578 | -98.84118 | 19989 ft | 424 kts | 353° |
| 2026-05-08 02:30 | 20.00590 | -98.84443 | 20053 ft | 438 kts | 353° |
| 2026-05-08 02:30 | 20.03683 | -98.84777 | 20192 ft | 449 kts | 353° |
| 2026-05-08 02:30 | 20.06830 | -98.85116 | 20530 ft | 455 kts | 353° |
| 2026-05-08 02:30 | 20.09986 | -98.85456 | 20957 ft | 458 kts | 353° |
| 2026-05-08 02:31 | 20.13010 | -98.85782 | 21381 ft | 459 kts | 353° |
| 2026-05-08 02:31 | 20.16148 | -98.86121 | 21746 ft | 463 kts | 352° |
| 2026-05-08 02:31 | 20.19392 | -98.86475 | 22075 ft | 468 kts | 352° |
| 2026-05-08 02:31 | 20.22643 | -98.86829 | 22410 ft | 472 kts | 352° |
| 2026-05-08 02:32 | 20.25937 | -98.87186 | 22791 ft | 475 kts | 352° |
| 2026-05-08 02:32 | 20.29223 | -98.87540 | 23249 ft | 476 kts | 352° |
| 2026-05-08 02:32 | 20.32547 | -98.87899 | 23726 ft | 476 kts | 352° |
| 2026-05-08 02:32 | 20.35869 | -98.88258 | 24109 ft | 478 kts | 352° |
| 2026-05-08 02:33 | 20.39181 | -98.88509 | 24454 ft | 482 kts | 358° |
| 2026-05-08 02:33 | 20.42536 | -98.88251 | 24779 ft | 487 kts | 7° |
| 2026-05-08 02:33 | 20.45911 | -98.87430 | 25058 ft | 492 kts | 17° |
| 2026-05-08 02:33 | 20.49050 | -98.86095 | 25392 ft | 494 kts | 26° |
| 2026-05-08 02:34 | 20.52155 | -98.84406 | 25834 ft | 494 kts | 27° |
| 2026-05-08 02:34 | 20.55217 | -98.82703 | 26168 ft | 496 kts | 27° |
| 2026-05-08 02:34 | 20.58310 | -98.80985 | 26439 ft | 500 kts | 27° |
| 2026-05-08 02:34 | 20.61434 | -98.79255 | 26741 ft | 502 kts | 27° |
| 2026-05-08 02:35 | 20.64560 | -98.77528 | 27065 ft | 504 kts | 27° |
| 2026-05-08 02:35 | 20.67673 | -98.75813 | 27376 ft | 506 kts | 27° |
| 2026-05-08 02:35 | 20.70837 | -98.74071 | 27644 ft | 508 kts | 27° |
| 2026-05-08 02:35 | 20.73986 | -98.72338 | 27904 ft | 511 kts | 27° |
| 2026-05-08 02:36 | 20.77169 | -98.70587 | 28177 ft | 513 kts | 26° |
| 2026-05-08 02:36 | 20.80398 | -98.68812 | 28456 ft | 515 kts | 26° |
| 2026-05-08 02:36 | 20.83594 | -98.67054 | 28713 ft | 518 kts | 26° |
| 2026-05-08 02:36 | 20.86852 | -98.65263 | 28972 ft | 521 kts | 26° |
| 2026-05-08 02:37 | 20.90088 | -98.63483 | 29260 ft | 522 kts | 26° |
| 2026-05-08 02:37 | 20.93342 | -98.61693 | 29592 ft | 523 kts | 26° |
| 2026-05-08 02:37 | 20.96603 | -98.59898 | 30058 ft | 520 kts | 26° |
| 2026-05-08 02:37 | 20.99793 | -98.58141 | 30528 ft | 518 kts | 26° |
| 2026-05-08 02:38 | 21.03019 | -98.56364 | 30940 ft | 516 kts | 26° |
| 2026-05-08 02:38 | 21.06233 | -98.54592 | 31262 ft | 517 kts | 26° |
| 2026-05-08 02:38 | 21.09450 | -98.52818 | 31633 ft | 516 kts | 25° |
| 2026-05-08 02:38 | 21.12140 | -98.51335 | 31948 ft | 515 kts | 25° |
| 2026-05-08 02:39 | 21.15302 | -98.49590 | 32257 ft | 516 kts | 25° |
| 2026-05-08 02:39 | 21.18515 | -98.47817 | 32552 ft | 516 kts | 25° |
| 2026-05-08 02:39 | 21.21699 | -98.46058 | 32931 ft | 515 kts | 25° |
| 2026-05-08 02:39 | 21.24917 | -98.44280 | 33393 ft | 513 kts | 25° |
| 2026-05-08 02:40 | 21.28077 | -98.42532 | 33879 ft | 510 kts | 25° |
| 2026-05-08 02:40 | 21.31275 | -98.40763 | 34324 ft | 508 kts | 25° |
| 2026-05-08 02:40 | 21.34419 | -98.39023 | 34660 ft | 508 kts | 25° |
| 2026-05-08 02:40 | 21.37574 | -98.37277 | 34862 ft | 510 kts | 25° |
| 2026-05-08 02:41 | 21.43975 | -98.33731 | 34845 ft | 520 kts | 25° |
| 2026-05-08 02:41 | 21.50478 | -98.30125 | 34850 ft | 528 kts | 25° |
| 2026-05-08 02:42 | 21.57022 | -98.26492 | 34841 ft | 528 kts | 25° |
| 2026-05-08 02:42 | 21.63561 | -98.22857 | 34839 ft | 529 kts | 25° |
| 2026-05-08 02:43 | 21.70116 | -98.19210 | 34836 ft | 530 kts | 25° |
| 2026-05-08 02:43 | 21.76706 | -98.15540 | 34832 ft | 531 kts | 25° |
| 2026-05-08 02:44 | 21.83280 | -98.11875 | 34834 ft | 529 kts | 25° |
| 2026-05-08 02:44 | 21.89834 | -98.08218 | 34830 ft | 533 kts | 25° |
| 2026-05-08 02:45 | 21.96466 | -98.04512 | 34827 ft | 532 kts | 25° |
| 2026-05-08 02:45 | 22.03040 | -98.00836 | 34830 ft | 532 kts | 25° |
| 2026-05-08 02:46 | 22.09607 | -97.97160 | 34830 ft | 532 kts | 25° |
| 2026-05-08 02:46 | 22.15762 | -97.93710 | 34831 ft | 532 kts | 25° |
| 2026-05-08 02:47 | 22.22387 | -97.89994 | 34834 ft | 532 kts | 25° |
| 2026-05-08 02:47 | 22.28930 | -97.86282 | 34833 ft | 533 kts | 28° |
| 2026-05-08 02:48 | 22.35271 | -97.82025 | 34841 ft | 532 kts | 30° |
| 2026-05-08 02:48 | 22.41526 | -97.77753 | 34839 ft | 534 kts | 30° |
| 2026-05-08 02:49 | 22.47828 | -97.73447 | 34843 ft | 531 kts | 30° |
| 2026-05-08 02:49 | 22.54108 | -97.69155 | 34846 ft | 532 kts | 29° |
| 2026-05-08 02:50 | 22.60412 | -97.64845 | 34845 ft | 533 kts | 29° |
| 2026-05-08 02:50 | 22.66695 | -97.60542 | 34850 ft | 532 kts | 29° |
| 2026-05-08 02:51 | 22.72986 | -97.56228 | 34857 ft | 531 kts | 29° |
| 2026-05-08 02:51 | 22.79248 | -97.51929 | 34860 ft | 533 kts | 29° |
| 2026-05-08 02:52 | 22.85531 | -97.47611 | 34863 ft | 530 kts | 28° |
| 2026-05-08 02:52 | 22.91753 | -97.43343 | 34867 ft | 531 kts | 29° |
| 2026-05-08 02:53 | 22.98015 | -97.39029 | 34869 ft | 529 kts | 29° |
| 2026-05-08 02:53 | 23.04275 | -97.34713 | 34876 ft | 530 kts | 30° |
| 2026-05-08 02:54 | 23.10507 | -97.30411 | 34858 ft | 530 kts | 30° |
| 2026-05-08 02:54 | 23.16774 | -97.26083 | 34863 ft | 532 kts | 29° |
| 2026-05-08 02:55 | 23.26149 | -97.19601 | 34864 ft | 532 kts | 29° |
| 2026-05-08 02:56 | 23.32409 | -97.15269 | 34862 ft | 531 kts | 29° |
| 2026-05-08 02:56 | 23.38647 | -97.10946 | 34863 ft | 533 kts | 29° |
| 2026-05-08 02:57 | 23.44943 | -97.06575 | 34866 ft | 531 kts | 29° |
| 2026-05-08 02:57 | 23.51199 | -97.02227 | 34858 ft | 534 kts | 30° |
| 2026-05-08 02:58 | 23.57443 | -96.97883 | 34870 ft | 533 kts | 30° |
| 2026-05-08 02:58 | 23.63711 | -96.93519 | 34869 ft | 533 kts | 29° |
| 2026-05-08 02:59 | 23.69972 | -96.89154 | 34864 ft | 534 kts | 29° |